Time;durP1;ratioP1;P1;durP2;ratioP2;P2;SDS_P1;SDS_P2;PMS_P1;PMS_P2;Temp;Humidity;BMP_temperature;BMP_pressure;BME280_temperature;BME280_humidity;BME280_pressure;Samples;Min_cycle;Max_cycle;Signal;HPM_P1;HPM_P2
2022/05/13 00:01:08;;;;;;;5.10;1.43;;;16.60;65.80;;;;;;5032029;28;20723;-73
2022/05/13 00:03:35;;;;;;;4.40;1.50;;;16.50;66.70;;;;;;5031166;28;20612;-73
2022/05/13 00:06:01;;;;;;;4.85;1.50;;;16.50;67.50;;;;;;5032067;28;20612;-73
2022/05/13 00:08:27;;;;;;;3.70;1.30;;;16.50;67.00;;;;;;5014207;28;20197;-73
2022/05/13 00:10:53;;;;;;;6.13;2.40;;;16.50;67.70;;;;;;5031255;28;20612;-76
2022/05/13 00:13:19;;;;;;;3.15;1.20;;;16.40;68.00;;;;;;5012834;28;20178;-75
2022/05/13 00:15:46;;;;;;;3.30;1.30;;;16.30;68.40;;;;;;5031323;28;20181;-75
2022/05/13 00:18:12;;;;;;;3.05;1.67;;;16.30;68.90;;;;;;5031642;28;20840;-75
2022/05/13 00:20:39;;;;;;;3.47;1.83;;;16.30;69.20;;;;;;5031403;28;20166;-76
2022/05/13 00:23:05;;;;;;;4.07;1.33;;;16.30;69.70;;;;;;5031147;28;20622;-76
2022/05/13 00:25:34;;;;;;;3.87;1.40;;;16.20;70.10;;;;;;5013987;28;20232;-75
2022/05/13 00:28:01;;;;;;;7.07;1.97;;;16.20;70.80;;;;;;5031608;28;20557;-76
2022/05/13 00:30:33;;;;;;;3.92;1.30;;;16.20;71.50;;;;;;5031184;28;20669;-76
2022/05/13 00:33:00;;;;;;;9.57;1.88;;;16.20;72.60;;;;;;5013194;28;20547;-76
2022/05/13 00:35:27;;;;;;;3.80;1.55;;;16.20;72.00;;;;;;5031323;28;20185;-75
2022/05/13 00:37:52;;;;;;;2.27;1.10;;;16.10;72.50;;;;;;5031560;28;20165;-75
2022/05/13 00:40:21;;;;;;;3.73;1.43;;;16.10;72.70;;;;;;5013338;28;20585;-74
2022/05/13 00:42:48;;;;;;;3.63;1.33;;;16.00;73.20;;;;;;5031322;28;20630;-74
2022/05/13 00:45:14;;;;;;;5.43;1.50;;;16.00;73.60;;;;;;5030656;28;20205;-75
2022/05/13 00:47:41;;;;;;;5.07;1.70;;;16.00;74.00;;;;;;5013705;28;20162;-75
2022/05/13 00:50:12;;;;;;;3.05;1.48;;;15.90;74.40;;;;;;5013386;28;20181;-74
2022/05/13 00:52:50;;;;;;;2.95;1.15;;;15.90;75.30;;;;;;5013706;28;20527;-75
2022/05/13 00:55:28;;;;;;;4.73;1.67;;;15.90;75.70;;;;;;5030746;28;20811;-75
2022/05/13 00:57:55;;;;;;;3.13;1.10;;;15.90;76.20;;;;;;5031526;28;21339;-75
2022/05/13 01:00:21;;;;;;;4.05;1.50;;;15.80;76.20;;;;;;5030648;28;20178;-75
2022/05/13 01:02:48;;;;;;;3.90;1.33;;;15.80;76.80;;;;;;5013799;28;20158;-75
2022/05/13 01:05:16;;;;;;;6.78;1.45;;;15.70;77.40;;;;;;5030422;28;20639;-75
2022/05/13 01:07:42;;;;;;;3.95;1.20;;;15.70;78.10;;;;;;5030926;28;20178;-74
2022/05/13 01:10:16;;;;;;;4.28;1.92;;;15.70;78.70;;;;;;5030831;28;20628;-75
2022/05/13 01:12:49;;;;;;;4.53;1.27;;;15.70;80.00;;;;;;5031196;28;20213;-75
2022/05/13 01:15:19;;;;;;;4.45;1.60;;;15.70;80.30;;;;;;5030209;28;20193;-75
2022/05/13 01:20:46;;;;;;;3.20;1.00;;;15.80;80.40;;;;;;5013136;28;20564;-75
2022/05/13 01:23:34;;;;;;;4.10;1.40;;;15.90;80.80;;;;;;5030500;28;20575;-75
2022/05/13 01:26:10;;;;;;;3.58;1.23;;;15.90;81.80;;;;;;5016900;28;20236;-75
2022/05/13 01:28:40;;;;;;;5.05;1.25;;;16.00;81.40;;;;;;5034374;28;20550;-75
2022/05/13 01:31:12;;;;;;;7.35;1.35;;;16.00;80.70;;;;;;5016786;28;20201;-75
2022/05/13 01:33:39;;;;;;;2.90;1.27;;;16.00;80.70;;;;;;4999935;28;20182;-75
2022/05/13 01:36:06;;;;;;;2.80;1.30;;;16.00;80.60;;;;;;5034425;28;20657;-75
2022/05/13 01:38:36;;;;;;;2.22;0.88;;;16.00;80.70;;;;;;5034298;28;20161;-75
2022/05/13 01:41:02;;;;;;;3.80;1.23;;;15.90;80.70;;;;;;5034086;28;20247;-75
2022/05/13 01:43:29;;;;;;;4.30;1.10;;;15.90;80.70;;;;;;5033414;28;20181;-75
2022/05/13 01:45:56;;;;;;;6.57;1.55;;;15.90;80.70;;;;;;5034231;28;20541;-75
2022/05/13 01:48:23;;;;;;;4.13;1.50;;;15.90;81.10;;;;;;5016420;28;20173;-74
2022/05/13 01:50:49;;;;;;;2.75;0.90;;;15.80;81.00;;;;;;5034022;28;20165;-75
2022/05/13 01:53:15;;;;;;;6.65;1.40;;;15.80;80.90;;;;;;5033670;28;20221;-75
2022/05/13 01:55:42;;;;;;;2.70;0.90;;;15.80;81.30;;;;;;5033961;28;20593;-75
2022/05/13 01:58:17;;;;;;;2.15;1.02;;;15.70;81.40;;;;;;5033983;28;20165;-75
2022/05/13 02:00:45;;;;;;;5.25;1.25;;;15.70;82.50;;;;;;5033626;28;20197;-74
2022/05/13 02:05:57;;;;;;;5.00;1.00;;;15.60;82.30;;;;;;5033648;28;20661;-75
2022/05/13 02:08:24;;;;;;;3.97;1.20;;;15.60;82.50;;;;;;5033972;28;20170;-76
2022/05/13 02:10:50;;;;;;;3.38;1.00;;;15.60;83.00;;;;;;5033630;28;20649;-75
2022/05/13 02:13:16;;;;;;;8.40;1.10;;;15.50;83.40;;;;;;5033168;28;20176;-75
2022/05/13 02:15:42;;;;;;;3.85;1.20;;;15.50;83.80;;;;;;5033544;28;20554;-75
2022/05/13 02:18:09;;;;;;;3.83;1.37;;;15.50;84.20;;;;;;5033838;28;20169;-76
2022/05/13 02:20:35;;;;;;;4.68;1.35;;;15.50;84.40;;;;;;5033484;28;20308;-75
2022/05/13 02:23:01;;;;;;;4.85;1.70;;;15.50;84.50;;;;;;5033351;28;20170;-75
2022/05/13 02:25:29;;;;;;;4.50;1.50;;;15.50;84.80;;;;;;4999444;28;20209;-75
2022/05/13 02:27:59;;;;;;;6.00;1.40;;;15.50;84.90;;;;;;5033277;28;20557;-75
2022/05/13 02:30:27;;;;;;;3.00;1.10;;;15.50;85.00;;;;;;5015312;28;20556;-75
2022/05/13 02:32:53;;;;;;;5.00;1.40;;;15.50;85.00;;;;;;5033437;28;20166;-75
2022/05/13 02:35:19;;;;;;;4.83;1.20;;;15.40;85.00;;;;;;5014932;28;20212;-75
2022/05/13 02:37:45;;;;;;;3.10;1.20;;;15.40;85.10;;;;;;5033107;28;20557;-75
2022/05/13 02:40:12;;;;;;;3.38;1.60;;;15.40;85.30;;;;;;5015105;28;20580;-75
2022/05/13 02:42:37;;;;;;;8.43;2.00;;;15.30;85.50;;;;;;5015439;28;20645;-75
2022/05/13 02:45:05;;;;;;;4.13;1.37;;;15.30;85.80;;;;;;5032680;28;20201;-75
2022/05/13 02:47:31;;;;;;;3.95;1.40;;;15.20;85.60;;;;;;5015402;28;20170;-74
2022/05/13 02:52:41;;;;;;;5.68;1.50;;;15.20;86.00;;;;;;5015183;28;20264;-74
2022/05/13 02:55:07;;;;;;;6.27;2.23;;;15.10;86.00;;;;;;5014418;28;20269;-75
2022/05/13 02:57:33;;;;;;;10.18;1.83;;;15.10;86.50;;;;;;5032828;28;20162;-75
2022/05/13 02:59:59;;;;;;;3.30;1.30;;;15.10;86.80;;;;;;5032359;28;20233;-75
2022/05/13 03:02:25;;;;;;;4.27;1.50;;;15.10;87.20;;;;;;5015143;28;20173;-75
2022/05/13 03:04:51;;;;;;;6.32;1.33;;;15.10;87.30;;;;;;5031964;28;20658;-75
2022/05/13 03:07:17;;;;;;;2.20;1.13;;;15.10;87.40;;;;;;5032748;28;20646;-75
2022/05/13 03:09:43;;;;;;;5.45;1.92;;;15.10;87.40;;;;;;5032124;28;20193;-74
2022/05/13 03:12:09;;;;;;;5.65;1.00;;;15.10;87.40;;;;;;5032574;28;20162;-75
2022/05/13 03:14:35;;;;;;;5.38;1.85;;;15.10;87.30;;;;;;5031968;28;20185;-74
2022/05/13 03:17:03;;;;;;;2.37;1.00;;;15.10;87.30;;;;;;5032520;28;20169;-75
2022/05/13 03:19:30;;;;;;;4.97;1.20;;;15.10;87.30;;;;;;5032479;28;20178;-75
2022/05/13 03:21:56;;;;;;;2.33;0.90;;;15.10;86.80;;;;;;5032182;28;20256;-75
2022/05/13 03:24:22;;;;;;;1.90;0.90;;;15.10;86.70;;;;;;5013846;28;20293;-75
2022/05/13 03:26:48;;;;;;;5.82;0.90;;;15.00;86.70;;;;;;5014839;28;20572;-75
2022/05/13 03:29:14;;;;;;;6.47;1.67;;;15.00;86.50;;;;;;5032434;28;20170;-75
2022/05/13 03:31:40;;;;;;;3.10;1.07;;;14.90;86.40;;;;;;5014186;28;20568;-75
2022/05/13 03:34:05;;;;;;;6.23;1.53;;;14.90;86.50;;;;;;5031557;28;20177;-74
2022/05/13 03:36:31;;;;;;;3.20;0.87;;;14.90;86.50;;;;;;5032279;28;20162;-75
2022/05/13 03:38:57;;;;;;;4.23;0.90;;;14.80;86.40;;;;;;5013933;28;20575;-75
2022/05/13 03:41:23;;;;;;;3.15;1.33;;;14.80;86.50;;;;;;5014211;28;20169;-75
2022/05/13 03:43:49;;;;;;;3.20;0.80;;;14.70;86.20;;;;;;5031491;28;20205;-75
2022/05/13 03:46:14;;;;;;;3.80;1.00;;;14.70;86.40;;;;;;5014252;28;20562;-75
2022/05/13 03:48:40;;;;;;;6.80;1.10;;;14.60;86.50;;;;;;5013417;28;20572;-75
2022/05/13 03:51:07;;;;;;;4.17;1.00;;;14.60;86.70;;;;;;5013837;28;20568;-75
2022/05/13 03:53:33;;;;;;;4.57;1.10;;;14.60;86.80;;;;;;5031155;28;20162;-75
2022/05/13 03:55:59;;;;;;;3.55;0.95;;;14.60;87.00;;;;;;5031934;28;20201;-75
2022/05/13 03:58:25;;;;;;;2.00;0.70;;;14.50;87.10;;;;;;5031651;28;20176;-75
2022/05/13 04:00:51;;;;;;;2.40;0.90;;;14.50;87.30;;;;;;5031499;28;20670;-75
2022/05/13 04:03:19;;;;;;;1.90;0.77;;;14.50;87.70;;;;;;5013584;28;20169;-75
2022/05/13 04:11:15;;;;;;;5.22;0.80;;;14.50;87.90;;;;;;5031551;28;20260;-75
2022/05/13 04:16:25;;;;;;;3.55;1.48;;;14.50;88.20;;;;;;5031632;28;20954;-75
2022/05/13 04:18:53;;;;;;;3.70;1.00;;;14.50;88.40;;;;;;5031645;28;20170;-75
2022/05/13 04:21:24;;;;;;;5.55;1.20;;;14.50;88.60;;;;;;5031103;28;20220;-76
2022/05/13 04:23:53;;;;;;;3.17;1.45;;;14.50;89.20;;;;;;5030653;28;20197;-75
2022/05/13 04:26:19;;;;;;;2.80;0.90;;;14.50;89.50;;;;;;4997234;28;20714;-75
2022/05/13 04:28:48;;;;;;;3.38;1.10;;;14.50;89.40;;;;;;5031425;28;20264;-75
2022/05/13 04:31:16;;;;;;;2.35;0.90;;;14.50;89.70;;;;;;5013677;28;20150;-75
2022/05/13 04:33:42;;;;;;;4.65;1.10;;;14.60;90.00;;;;;;4997017;28;20223;-75
2022/05/13 04:36:08;;;;;;;3.33;0.73;;;14.60;90.00;;;;;;5013825;28;20267;-75
2022/05/13 04:38:35;;;;;;;2.47;1.10;;;14.60;90.00;;;;;;5013756;28;20288;-75
2022/05/13 04:42:49;;;;;;;4.50;0.80;;;14.70;90.10;;;;;;5030867;28;20642;-75
2022/05/13 04:43:48;;;;;;;4.35;1.00;;;14.80;90.20;;;;;;5030199;28;20201;-75
2022/05/13 04:46:14;;;;;;;1.88;1.05;;;14.80;90.10;;;;;;5031202;28;20190;-75
2022/05/13 04:48:42;;;;;;;5.90;1.10;;;14.80;90.20;;;;;;5031272;28;20158;-75
2022/05/13 04:51:08;;;;;;;3.72;1.05;;;14.90;90.30;;;;;;5013172;28;20525;-75
2022/05/13 04:53:36;;;;;;;2.92;1.10;;;15.00;90.30;;;;;;5030668;28;20257;-75
2022/05/13 04:56:05;;;;;;;3.30;1.00;;;15.10;90.40;;;;;;5031372;28;20535;-75
2022/05/13 04:58:31;;;;;;;5.43;1.60;;;15.10;90.30;;;;;;5031300;28;20574;-74
2022/05/13 05:00:58;;;;;;;4.90;1.10;;;15.20;90.30;;;;;;5034754;28;20169;-75
2022/05/13 05:03:27;;;;;;;1.83;0.80;;;15.30;90.30;;;;;;5034370;28;20169;-74
2022/05/13 05:05:53;;;;;;;3.88;1.00;;;15.30;90.20;;;;;;5034632;28;20208;-75
2022/05/13 05:08:19;;;;;;;3.97;0.95;;;15.40;90.20;;;;;;5034738;28;20244;-75
2022/05/13 05:10:46;;;;;;;5.30;1.00;;;15.50;90.30;;;;;;5034787;28;20582;-74
2022/05/13 05:13:27;;;;;;;3.60;1.07;;;15.50;90.10;;;;;;5016835;28;20177;-74
2022/05/13 05:15:54;;;;;;;7.37;1.50;;;15.60;90.00;;;;;;5016707;28;20598;-74
2022/05/13 05:18:20;;;;;;;5.43;1.13;;;15.70;89.80;;;;;;5034626;28;20592;-75
2022/05/13 05:20:46;;;;;;;4.63;1.30;;;15.70;89.60;;;;;;5034141;28;20657;-75
2022/05/13 05:23:27;;;;;;;2.97;0.90;;;15.70;89.80;;;;;;5034353;28;20637;-79
2022/05/13 05:25:53;;;;;;;5.43;1.20;;;15.80;90.00;;;;;;5034620;28;20562;-79
2022/05/13 05:28:20;;;;;;;2.50;0.90;;;15.80;90.00;;;;;;5034357;28;20557;-78
2022/05/13 05:30:45;;;;;;;4.60;1.08;;;15.90;90.00;;;;;;5034028;28;20664;-79
2022/05/13 05:33:11;;;;;;;6.37;0.90;;;16.00;90.00;;;;;;5015906;28;20248;-78
2022/05/13 05:35:38;;;;;;;2.63;1.25;;;16.00;89.70;;;;;;5033967;28;20221;-79
2022/05/13 05:38:05;;;;;;;2.90;1.07;;;16.10;89.70;;;;;;5002701;28;20269;-78
2022/05/13 05:40:31;;;;;;;5.83;1.47;;;16.20;90.00;;;;;;5014077;28;20658;-78
2022/05/13 05:43:09;;;;;;;4.07;1.07;;;16.30;90.10;;;;;;5013917;28;20614;-78
2022/05/13 05:45:37;;;;;;;4.47;1.00;;;16.40;90.20;;;;;;5014484;28;20648;-78
2022/05/13 05:48:04;;;;;;;3.17;0.90;;;16.70;90.40;;;;;;5014176;28;20576;-78
2022/05/13 05:50:30;;;;;;;5.17;1.00;;;16.90;90.40;;;;;;5013916;28;20558;-78
2022/05/13 05:52:56;;;;;;;4.17;1.40;;;17.20;90.40;;;;;;5013865;28;21124;-78
2022/05/13 05:58:12;;;;;;;6.53;0.93;;;17.90;90.10;;;;;;5015472;28;20178;-79
2022/05/13 06:00:42;;;;;;;3.37;1.20;;;18.20;89.00;;;;;;5028586;28;20953;-81
2022/05/13 06:03:08;;;;;;;2.57;1.27;;;18.40;88.20;;;;;;5017301;28;20589;-80
2022/05/13 06:05:34;;;;;;;4.87;1.03;;;18.50;87.30;;;;;;5037020;23;20656;-75
2022/05/13 06:08:03;;;;;;;7.50;1.83;;;18.70;86.90;;;;;;5033469;28;20909;-75
2022/05/13 06:10:31;;;;;;;8.20;1.80;;;18.80;86.00;;;;;;5031457;28;20702;-75
2022/05/13 06:12:57;;;;;;;6.30;1.60;;;19.10;83.70;;;;;;5024669;28;20730;-75
2022/05/13 06:15:24;;;;;;;4.27;1.10;;;19.70;82.30;;;;;;5032932;28;20608;-77
2022/05/13 06:17:55;;;;;;;6.70;1.30;;;20.10;84.90;;;;;;5030430;28;20659;-76
2022/05/13 06:20:29;;;;;;;2.47;1.10;;;20.80;84.90;;;;;;5032927;28;20706;-76
2022/05/13 06:22:56;;;;;;;5.15;1.30;;;21.80;83.20;;;;;;5030122;28;20724;-77
2022/05/13 06:25:22;;;;;;;6.33;1.33;;;22.80;73.50;;;;;;5032759;28;20211;-76
2022/05/13 06:27:49;;;;;;;5.00;2.00;;;23.20;77.20;;;;;;5027846;28;20616;-76
2022/05/13 06:30:19;;;;;;;5.25;1.50;;;23.80;76.90;;;;;;5012922;28;20786;-76
2022/05/13 06:32:45;;;;;;;2.83;1.00;;;24.60;65.00;;;;;;5029737;28;20505;-76
2022/05/13 06:35:12;;;;;;;4.13;1.10;;;25.00;69.50;;;;;;5032499;28;20647;-73
2022/05/13 06:37:38;;;;;;;3.95;1.00;;;25.50;69.20;;;;;;5033022;28;20694;-72
2022/05/13 06:40:06;;;;;;;2.40;1.10;;;26.00;66.50;;;;;;5032703;28;20174;-72
2022/05/13 06:42:32;;;;;;;3.13;1.00;;;26.40;66.70;;;;;;5032784;28;20752;-72
2022/05/13 06:44:59;;;;;;;5.20;1.30;;;27.00;62.30;;;;;;5030438;28;20738;-72
2022/05/13 06:47:25;;;;;;;3.77;1.10;;;27.60;58.30;;;;;;5032867;28;20640;-72
2022/05/13 06:49:51;;;;;;;4.90;1.27;;;28.10;61.20;;;;;;5031657;28;21247;-73
2022/05/13 06:52:17;;;;;;;3.93;0.90;;;29.00;53.40;;;;;;5031713;28;20576;-73
2022/05/13 06:54:43;;;;;;;2.83;1.00;;;29.20;56.20;;;;;;5031219;28;20201;-72
2022/05/13 06:57:10;;;;;;;4.27;1.13;;;29.30;55.10;;;;;;5031890;28;20661;-72
2022/05/13 06:59:39;;;;;;;5.70;0.80;;;29.50;54.00;;;;;;5031900;28;20589;-73
2022/05/13 07:02:05;;;;;;;3.00;0.87;;;29.50;53.30;;;;;;5032499;28;20923;-73
2022/05/13 07:04:32;;;;;;;6.57;1.00;;;29.70;53.40;;;;;;5031616;28;20620;-73
2022/05/13 07:06:59;;;;;;;5.40;1.00;;;29.80;53.00;;;;;;5032645;28;21194;-72
2022/05/13 07:09:26;;;;;;;4.23;0.80;;;29.80;52.30;;;;;;5027251;28;20588;-72
2022/05/13 07:11:51;;;;;;;4.67;1.43;;;29.90;52.10;;;;;;5032073;28;20577;-73
2022/05/13 07:14:17;;;;;;;4.30;1.00;;;30.00;52.00;;;;;;5031790;28;20717;-72
2022/05/13 07:16:43;;;;;;;3.20;1.03;;;30.10;51.30;;;;;;5031574;28;20703;-72
2022/05/13 07:19:08;;;;;;;6.57;1.30;;;30.10;47.50;;;;;;5031492;28;21115;-73
2022/05/13 07:21:36;;;;;;;3.00;0.90;;;30.20;45.40;;;;;;5031994;28;20166;-73
2022/05/13 07:24:01;;;;;;;2.70;0.83;;;30.70;48.40;;;;;;5031606;28;20193;-73
2022/05/13 07:26:27;;;;;;;3.00;1.47;;;31.30;49.20;;;;;;5032037;28;20595;-73
2022/05/13 07:28:53;;;;;;;3.20;1.07;;;31.90;48.40;;;;;;5032129;28;20172;-74
2022/05/13 07:31:18;;;;;;;2.80;0.80;;;32.40;48.30;;;;;;5031497;28;20241;-73
2022/05/13 07:33:44;;;;;;;5.43;0.80;;;32.90;47.70;;;;;;5031575;28;20668;-72
2022/05/13 07:36:10;;;;;;;4.60;0.90;;;33.40;47.20;;;;;;5032018;28;20198;-73
2022/05/13 07:38:35;;;;;;;3.20;0.83;;;33.60;46.30;;;;;;5032042;28;20194;-73
2022/05/13 07:41:17;;;;;;;6.73;1.37;;;33.70;44.90;;;;;;5030233;28;20203;-73
2022/05/13 07:43:44;;;;;;;3.78;1.00;;;33.60;44.50;;;;;;5026112;28;21347;-73
2022/05/13 07:46:11;;;;;;;3.20;0.70;;;33.10;39.20;;;;;;5029192;28;20194;-73
2022/05/13 07:48:39;;;;;;;6.80;1.10;;;33.00;41.10;;;;;;5030798;28;20582;-73
2022/05/13 07:51:06;;;;;;;2.13;0.70;;;32.90;41.40;;;;;;5030362;28;20565;-73
2022/05/13 07:53:32;;;;;;;3.50;0.90;;;32.70;41.50;;;;;;5031246;28;20652;-73
2022/05/13 07:55:58;;;;;;;3.97;1.10;;;32.60;41.60;;;;;;5031757;28;20608;-73
2022/05/13 07:58:24;;;;;;;3.27;1.03;;;32.40;41.20;;;;;;5031137;28;20344;-73
2022/05/13 08:00:50;;;;;;;5.37;0.93;;;32.10;41.30;;;;;;5031363;28;20565;-73
2022/05/13 08:03:17;;;;;;;2.53;0.80;;;31.90;41.30;;;;;;5031207;28;20169;-73
2022/05/13 08:05:48;;;;;;;3.70;0.80;;;31.70;41.40;;;;;;5031262;28;21171;-73
2022/05/13 08:08:16;;;;;;;4.50;0.90;;;31.60;41.20;;;;;;5031526;28;20638;-73
2022/05/13 08:10:46;;;;;;;2.93;0.70;;;31.40;41.20;;;;;;5029919;28;20628;-73
2022/05/13 08:13:11;;;;;;;4.53;0.73;;;31.20;41.10;;;;;;5030948;28;20659;-73
2022/05/13 08:15:38;;;;;;;3.60;0.90;;;31.10;41.40;;;;;;5031187;28;20739;-73
2022/05/13 08:18:04;;;;;;;5.33;1.10;;;30.90;41.30;;;;;;5031256;28;20684;-73
2022/05/13 08:20:31;;;;;;;5.17;0.83;;;30.80;41.40;;;;;;5031002;28;20572;-73
2022/05/13 08:22:57;;;;;;;4.63;1.03;;;30.70;41.50;;;;;;5030875;28;21126;-73
2022/05/13 08:25:23;;;;;;;4.00;1.20;;;30.70;41.80;;;;;;5029759;28;20623;-73
2022/05/13 08:27:49;;;;;;;2.40;0.90;;;30.70;41.80;;;;;;5029713;28;20633;-73
2022/05/13 08:30:15;;;;;;;4.67;1.50;;;30.80;41.80;;;;;;5030982;28;20561;-72
2022/05/13 08:32:41;;;;;;;3.00;1.20;;;30.90;41.80;;;;;;5031175;28;20158;-73
2022/05/13 08:35:07;;;;;;;2.27;1.00;;;30.90;41.70;;;;;;5033491;28;20741;-73
2022/05/13 08:37:43;;;;;;;3.00;1.30;;;31.00;41.90;;;;;;5033942;28;20174;-73
2022/05/13 08:40:18;;;;;;;3.30;1.10;;;31.20;41.20;;;;;;5034507;28;21122;-72
2022/05/13 08:42:46;;;;;;;3.07;1.00;;;31.30;41.00;;;;;;5035080;28;20576;-73
2022/05/13 08:45:12;;;;;;;3.77;0.90;;;31.20;40.70;;;;;;5034618;28;20632;-73
2022/05/13 08:47:56;;;;;;;3.20;0.90;;;31.20;40.80;;;;;;5034061;28;20972;-73
2022/05/13 08:50:37;;;;;;;3.90;0.80;;;31.20;40.60;;;;;;5033623;28;20603;-73
2022/05/13 08:53:21;;;;;;;4.03;0.70;;;31.20;40.90;;;;;;5033333;28;20603;-73
2022/05/13 08:56:08;;;;;;;2.53;0.90;;;31.40;40.80;;;;;;5033656;28;20604;-73
2022/05/13 08:59:15;;;;;;;2.53;0.70;;;31.50;41.00;;;;;;5033603;28;20595;-73
2022/05/13 09:01:53;;;;;;;2.40;0.60;;;31.70;40.80;;;;;;5034172;28;20580;-73
2022/05/13 09:04:43;;;;;;;2.07;0.67;;;31.90;40.30;;;;;;5034496;28;20615;-73
2022/05/13 09:07:16;;;;;;;7.63;0.90;;;32.10;40.40;;;;;;5033722;28;20592;-73
2022/05/13 09:09:44;;;;;;;3.47;0.70;;;32.20;40.20;;;;;;5034525;28;20552;-73
2022/05/13 09:12:18;;;;;;;1.50;0.60;;;32.40;40.10;;;;;;5034510;28;20564;-71
2022/05/13 09:14:57;;;;;;;2.40;0.70;;;32.50;39.60;;;;;;5034175;28;20605;-72
2022/05/13 09:17:52;;;;;;;4.33;0.60;;;32.70;39.30;;;;;;5033345;28;20902;-72
2022/05/13 09:20:22;;;;;;;1.60;0.80;;;32.90;38.80;;;;;;5034311;28;20622;-71
2022/05/13 09:22:51;;;;;;;7.03;0.87;;;33.20;39.10;;;;;;5033419;28;20613;-71
2022/05/13 09:25:54;;;;;;;2.37;0.70;;;33.40;38.70;;;;;;5033758;28;20647;-73
2022/05/13 09:28:21;;;;;;;2.47;0.70;;;33.70;38.40;;;;;;5033640;28;20579;-73
2022/05/13 09:30:55;;;;;;;1.97;0.67;;;34.00;38.40;;;;;;5031982;28;21130;-73
2022/05/13 09:33:39;;;;;;;2.40;0.80;;;34.20;37.60;;;;;;5033768;28;20632;-74
2022/05/13 09:36:28;;;;;;;2.83;0.90;;;34.50;36.20;;;;;;5034282;28;21202;-73
2022/05/13 09:39:16;;;;;;;1.77;0.80;;;34.60;36.90;;;;;;5034354;28;20632;-73
2022/05/13 09:41:42;;;;;;;2.90;0.70;;;34.40;35.90;;;;;;5032045;28;20978;-73
2022/05/13 09:44:23;;;;;;;4.67;1.80;;;34.00;36.20;;;;;;5033531;28;20619;-73
2022/05/13 09:47:09;;;;;;;2.83;1.30;;;33.90;36.30;;;;;;5032809;28;20208;-72
2022/05/13 09:49:40;;;;;;;2.93;1.30;;;33.70;36.00;;;;;;5034065;28;20914;-73
2022/05/13 09:52:31;;;;;;;2.00;0.70;;;33.20;35.80;;;;;;5032816;28;20580;-73
2022/05/13 09:55:12;;;;;;;1.47;0.63;;;32.90;35.60;;;;;;5032962;28;20628;-73
2022/05/13 09:57:38;;;;;;;2.13;0.70;;;32.70;35.80;;;;;;5033673;28;20580;-73
2022/05/13 10:00:13;;;;;;;4.07;0.70;;;32.30;35.60;;;;;;5033500;28;20572;-72
2022/05/13 10:03:01;;;;;;;3.63;0.70;;;31.80;35.20;;;;;;5032456;28;21150;-72
2022/05/13 10:05:27;;;;;;;2.67;1.30;;;31.30;35.20;;;;;;5033394;28;20689;-72
2022/05/13 10:07:53;;;;;;;2.00;0.93;;;30.60;35.40;;;;;;5033851;28;20567;-72
2022/05/13 10:16:18;;;;;;;2.37;0.70;;;29.30;36.40;;;;;;5033492;28;20714;-73
2022/05/13 10:19:12;;;;;;;2.47;1.10;;;28.60;36.40;;;;;;5032320;28;20648;-73
2022/05/13 10:21:56;;;;;;;2.53;0.77;;;28.20;36.70;;;;;;5033149;28;20565;-73
2022/05/13 10:24:49;;;;;;;2.40;1.30;;;27.70;36.80;;;;;;5031600;28;20726;-73
2022/05/13 10:27:39;;;;;;;2.60;1.10;;;26.70;38.00;;;;;;5028755;28;20659;-73
2022/05/13 10:30:26;;;;;;;4.97;1.20;;;26.40;38.30;;;;;;5026778;28;20589;-73
2022/05/13 10:33:14;;;;;;;4.83;1.00;;;26.20;38.80;;;;;;5033156;28;20611;-73
2022/05/13 10:36:03;;;;;;;3.58;0.90;;;26.30;39.20;;;;;;5032409;28;20812;-73
2022/05/13 10:38:43;;;;;;;3.20;1.00;;;26.20;39.60;;;;;;5033086;28;20307;-72
2022/05/13 10:41:52;;;;;;;2.17;0.80;;;26.20;39.50;;;;;;5032690;28;20582;-72
2022/05/13 10:44:21;;;;;;;2.90;0.80;;;26.30;39.80;;;;;;4974560;28;20951;-72
2022/05/13 10:46:46;;;;;;;2.00;0.77;;;26.40;40.00;;;;;;5020369;28;20633;-73
2022/05/13 10:49:13;;;;;;;4.20;0.97;;;26.60;40.10;;;;;;5033084;28;20569;-73
2022/05/13 10:51:54;;;;;;;2.33;0.63;;;26.60;39.80;;;;;;5031366;28;20173;-73
2022/05/13 10:54:32;;;;;;;2.73;0.60;;;26.60;39.80;;;;;;5032173;28;20568;-73
2022/05/13 10:57:08;;;;;;;1.60;0.60;;;26.60;39.90;;;;;;5030948;28;20586;-72
2022/05/13 11:00:12;;;;;;;1.50;0.70;;;26.60;39.80;;;;;;5032713;28;21214;-72
2022/05/13 11:02:44;;;;;;;3.10;0.70;;;26.70;39.80;;;;;;5028218;28;20584;-72
2022/05/13 11:05:40;;;;;;;3.13;0.80;;;26.80;39.40;;;;;;5031678;28;20655;-73
2022/05/13 11:12:34;;;;;;;2.27;0.73;;;26.80;39.30;;;;;;5032238;28;20544;-73
2022/05/13 11:15:16;;;;;;;2.20;0.80;;;26.80;39.40;;;;;;5032109;28;20608;-72
2022/05/13 11:17:54;;;;;;;2.77;0.80;;;26.80;39.70;;;;;;5030441;28;20580;-72
2022/05/13 11:20:57;;;;;;;1.57;0.70;;;26.90;39.80;;;;;;5031976;28;20596;-72
2022/05/13 11:25:54;;;;;;;3.60;0.87;;;26.90;39.70;;;;;;5031352;28;20784;-72
2022/05/13 11:26:41;;;;;;;2.37;0.77;;;26.90;39.20;;;;;;5031962;28;20621;-72
2022/05/13 11:29:16;;;;;;;1.77;0.67;;;26.90;39.40;;;;;;5031463;28;20572;-72
2022/05/13 11:31:44;;;;;;;1.70;0.80;;;27.00;39.80;;;;;;5031594;28;20568;-73
2022/05/13 11:34:28;;;;;;;3.70;0.90;;;27.30;40.20;;;;;;5030951;28;20694;-73
2022/05/13 11:36:58;;;;;;;2.50;1.20;;;27.30;39.30;;;;;;5031724;28;20169;-73
2022/05/13 11:39:44;;;;;;;3.00;1.00;;;27.30;39.60;;;;;;5030013;28;21112;-73
2022/05/13 11:42:25;;;;;;;3.90;0.90;;;27.40;39.90;;;;;;5031849;28;20564;-73
2022/05/13 11:45:19;;;;;;;2.73;0.80;;;27.30;39.10;;;;;;5031739;28;20632;-73
2022/05/13 11:47:59;;;;;;;2.50;0.90;;;27.30;39.20;;;;;;5031249;28;20561;-73
2022/05/13 11:50:30;;;;;;;2.40;1.30;;;27.30;39.20;;;;;;5031314;28;20655;-72
2022/05/13 11:52:59;;;;;;;3.20;1.43;;;27.20;39.00;;;;;;5030389;28;20563;-72
2022/05/13 11:55:42;;;;;;;2.47;1.30;;;27.00;38.80;;;;;;5031552;28;20950;-73
2022/05/13 11:58:47;;;;;;;3.70;0.90;;;26.80;38.80;;;;;;5031263;28;20562;-73
2022/05/13 12:01:13;;;;;;;3.67;1.30;;;26.70;39.30;;;;;;5031152;28;20647;-74
2022/05/13 12:03:39;;;;;;;4.83;2.67;;;26.70;39.70;;;;;;5031376;28;20564;-73
2022/05/13 12:06:11;;;;;;;5.50;2.23;;;26.60;39.60;;;;;;5031532;28;20670;-74
2022/05/13 12:08:36;;;;;;;2.93;1.47;;;26.50;39.70;;;;;;5028795;28;20629;-74
2022/05/13 12:11:02;;;;;;;3.00;1.80;;;26.50;39.90;;;;;;5031111;28;20599;-74
2022/05/13 12:13:37;;;;;;;3.83;2.30;;;26.50;40.00;;;;;;5030188;28;20166;-75
2022/05/13 12:16:28;;;;;;;5.03;2.63;;;26.50;40.10;;;;;;5031161;28;20691;-74
2022/05/13 12:19:13;;;;;;;5.50;3.80;;;26.50;40.40;;;;;;5029063;28;21197;-74
2022/05/13 12:21:56;;;;;;;5.00;2.90;;;26.50;40.60;;;;;;5029578;28;20596;-74
2022/05/13 12:24:24;;;;;;;7.30;3.20;;;26.60;40.60;;;;;;5030970;28;20992;-74
2022/05/13 12:26:53;;;;;;;5.07;3.70;;;26.70;40.60;;;;;;5031009;28;20619;-74
2022/05/13 12:29:43;;;;;;;4.07;2.57;;;26.80;40.70;;;;;;5030652;28;20567;-74
2022/05/13 12:32:42;;;;;;;3.70;2.27;;;26.80;40.50;;;;;;5031092;28;20934;-73
2022/05/13 12:38:07;;;;;;;6.43;3.97;;;26.90;40.50;;;;;;5030402;28;20569;-74
2022/05/13 12:41:14;;;;;;;9.93;3.53;;;26.80;40.20;;;;;;5029679;28;20571;-74
2022/05/13 12:44:05;;;;;;;5.07;2.83;;;26.70;40.20;;;;;;5029265;28;20592;-74
2022/05/13 12:46:46;;;;;;;3.03;1.30;;;26.70;40.10;;;;;;5031196;28;20610;-74
2022/05/13 12:49:17;;;;;;;5.80;1.90;;;26.50;39.70;;;;;;5030487;28;21131;-75
2022/05/13 12:52:02;;;;;;;9.07;1.20;;;26.30;39.40;;;;;;5029587;28;20918;-74
2022/05/13 12:54:32;;;;;;;2.00;1.00;;;26.00;39.40;;;;;;5029664;28;20572;-74
2022/05/13 12:57:20;;;;;;;2.30;0.83;;;25.80;39.40;;;;;;5029733;28;20564;-74
2022/05/13 12:59:50;;;;;;;3.10;1.00;;;25.60;39.60;;;;;;5030709;28;20622;-74
2022/05/13 13:02:19;;;;;;;2.30;0.80;;;25.40;39.90;;;;;;5030911;28;20660;-74
2022/05/13 13:05:03;;;;;;;2.00;0.80;;;25.20;39.90;;;;;;5030673;28;20628;-74
2022/05/13 13:07:32;;;;;;;3.30;1.10;;;25.10;40.30;;;;;;5030443;28;20596;-74
2022/05/13 13:09:59;;;;;;;3.13;1.53;;;25.10;40.30;;;;;;5029438;28;20577;-74
2022/05/13 13:12:35;;;;;;;3.93;1.10;;;24.90;40.40;;;;;;5029718;28;20967;-74
2022/05/13 13:15:12;;;;;;;2.33;1.10;;;24.80;40.90;;;;;;5030779;28;20610;-74
2022/05/13 13:17:46;;;;;;;3.40;1.50;;;24.70;40.90;;;;;;5030375;28;21222;-74
2022/05/13 13:20:14;;;;;;;2.53;1.07;;;24.60;41.00;;;;;;5031543;28;20564;-74
2022/05/13 13:22:43;;;;;;;5.83;2.17;;;24.60;41.10;;;;;;5034304;28;20592;-74
2022/05/13 13:25:29;;;;;;;3.53;1.87;;;24.50;41.30;;;;;;5034069;28;21066;-74
2022/05/13 13:28:03;;;;;;;2.90;1.03;;;24.50;41.70;;;;;;5032022;28;20584;-74
2022/05/13 13:30:31;;;;;;;1.80;0.80;;;24.40;41.50;;;;;;5033764;28;20565;-74
2022/05/13 13:32:57;;;;;;;2.13;1.00;;;24.40;41.70;;;;;;5033863;28;20924;-74
2022/05/13 13:35:28;;;;;;;3.20;2.20;;;24.40;41.70;;;;;;5034033;28;20638;-74
2022/05/13 13:37:55;;;;;;;4.90;2.30;;;24.40;41.80;;;;;;5032459;28;20575;-74
2022/05/13 13:40:29;;;;;;;7.80;4.17;;;24.40;41.90;;;;;;5033847;28;20595;-74
2022/05/13 13:42:54;;;;;;;4.60;2.57;;;24.40;42.20;;;;;;5034202;28;20690;-74